Latest Weather Observations for Braidwood

IDN60801

Issued at 5:35 pm EST Wednesday 1 October 2014 (issued every 30 minutes, with the page automatically refreshed every 10 minutes)

About weather observations | Map of weather stations | Latest weather observations for NSW | Other Formats
Station Details ID: 069132 Name: BRAIDWOOD RACECOURSE AWS Lat: -35.43 Lon: 149.78 Height: 665.2 m
Data from the previous 72 hours. | See also: Recent months at Braidwood
Date/Time
EST
Temp
°C
App
Temp
°C
Dew
Point
Rel
Hum
%
Delta-T
°C
Wind Press
QNH
hPa
Press
MSL
hPa
Rain
since 9 am
mm
Dir
 
Spd
km/h
Gust
km/h
Spd
kts
Gust
kts
01/05:30pm 11.0 7.2 -1.1 43 5.0 SE 9 13 5 7 1019.8 1019.1 0.0
01/05:00pm 12.4 7.9 -3.0 34 6.2 S 11 17 6 9 1019.5 1018.8 0.0
01/04:30pm 12.9 6.9 -3.0 33 6.4 S 19 24 10 13 1019.3 1018.5 0.0
01/04:00pm 13.2 7.0 -3.1 32 6.6 S 20 26 11 14 1019.2 1018.4 0.0
01/03:30pm 13.3 7.3 -3.0 32 6.6 S 19 26 10 14 1019.0 1018.2 0.0
01/03:00pm 13.5 7.6 -2.4 33 6.5 S 19 28 10 15 1018.6 1017.9 0.0
01/02:30pm 13.0 6.9 -4.1 30 6.7 S 19 30 10 16 1018.6 1017.9 0.0
01/02:00pm 13.1 7.9 -2.8 33 6.4 SSW 15 22 8 12 1019.0 1018.2 0.0
01/01:30pm 12.7 6.9 -4.9 29 6.8 S 17 28 9 15 1019.0 1018.2 0.0
01/01:00pm 12.7 7.8 -3.5 32 6.4 SSW 13 17 7 9 1019.1 1018.3 0.0
01/12:30pm 12.5 6.4 -3.7 32 6.4 WSW 19 28 10 15 1019.1 1018.3 0.0
01/12:00pm 11.9 6.1 -5.1 30 6.4 WSW 17 26 9 14 1019.1 1018.3 0.0
01/11:30am 11.8 6.5 -3.5 34 6.0 SSW 15 30 8 16 1019.2 1018.4 0.0
01/11:00am 11.7 5.1 -3.6 34 6.0 SSW 22 41 12 22 1019.2 1018.4 0.0
01/10:30am 10.9 4.1 -4.7 33 5.9 SW 22 43 12 23 1018.7 1018.0 0.0
01/10:10am 10.7 2.8 -4.9 33 5.9 SSW 28 46 15 25 1018.5 1017.8 0.0
01/10:00am 10.6 1.8 -4.6 34 5.7 SSW 33 41 18 22 1018.5 1017.8 0.0
01/09:30am 10.0 2.8 -5.5 33 5.7 SW 24 39 13 21 1018.3 1018.2 0.0
01/09:00am 9.5 2.0 -4.8 36 5.3 SSW 26 43 14 23 1018.0 1017.9 0.0
01/08:56am 9.2 1.2 -5.4 35 5.3 SSW 28 48 15 26 1018.1 1018.0 0.0
01/08:30am 8.9 1.3 -5.7 35 5.3 SSW 26 41 14 22 1017.9 1017.8 0.0
01/08:00am 8.5 2.6 -5.7 36 5.1 SW 17 30 9 16 1017.6 1017.5 0.0
01/07:30am 8.0 2.2 -5.1 39 4.8 W 17 32 9 17 1016.6 1016.5 0.0
01/07:00am 7.2 0.5 -4.5 43 4.3 W 22 33 12 18 1016.2 1016.1 0.0
01/06:30am 6.6 0.9 -3.9 47 3.9 W 17 30 9 16 1016.1 1016.0 0.0
01/06:00am 6.4 0.1 -4.4 46 3.9 W 20 30 11 16 1015.4 1015.3 0.0
01/05:30am 6.2 -0.5 -4.5 46 3.9 W 22 33 12 18 1014.4 1014.2 0.0
01/05:00am 6.2 0.9 -4.0 48 3.7 W 15 20 8 11 1014.2 1014.0 0.0
01/04:30am 5.9 0.1 -4.5 47 3.7 WNW 17 22 9 12 1013.7 1013.6 0.0
01/04:00am 6.6 2.2 -5.7 41 4.3 W 9 19 5 10 1013.3 1013.2 0.0
01/03:30am 7.8 2.6 -6.0 37 4.9 WSW 13 20 7 11 1012.6 1012.4 0.0
01/03:00am 9.2 2.7 -5.8 34 5.4 W 20 41 11 22 1011.8 1011.6 0.0
01/02:30am 10.7 3.7 -3.4 37 5.5 W 24 35 13 19 1011.1 1010.9 0.0
01/02:11am 11.3 3.5 -1.1 42 5.1 W 30 37 16 20 1010.8 1010.7 0.0
01/02:00am 9.6 6.0 0.5 53 3.8 WNW 9 13 5 7 1011.0 1010.8 0.0
01/01:30am 12.4 6.0 1.1 46 5.0 WNW 24 41 13 22 1010.6 1010.4 0.0
01/01:00am 13.5 6.3 3.0 49 4.9 W 30 41 16 22 1010.8 1010.7 0.0
01/12:30am 14.5 8.2 3.6 48 5.2 W 26 43 14 23 1010.2 1010.0 0.0
01/12:00am 15.0 9.4 3.2 45 5.6 WNW 22 37 12 20 1009.2 1009.0 0.0
 
Date/Time
EST
Temp
°C
App
Temp
°C
Dew
Point
Rel
Hum
%
Delta-T
°C
Wind Press
QNH
hPa
Press
MSL
hPa
Rain
since 9 am
mm
Dir
 
Spd
km/h
Gust
km/h
Spd
kts
Gust
kts
30/11:30pm 15.4 9.5 1.5 39 6.3 WNW 22 32 12 17 1008.7 1008.5 0.0
30/11:00pm 15.8 8.7 1.2 37 6.6 NW 28 43 15 23 1008.4 1008.2 0.0
30/10:30pm 15.8 10.2 1.2 37 6.6 NW 20 32 11 17 1007.9 1007.6 0.0
30/10:00pm 16.2 10.6 1.1 36 6.9 NW 20 33 11 18 1008.1 1007.8 0.0
30/09:30pm 16.9 10.1 0.5 33 7.4 NW 26 39 14 21 1008.4 1008.2 0.0
30/09:01pm 17.7 10.5 0.4 31 7.8 NW 28 52 15 28 1008.4 1008.2 0.0
30/09:00pm 17.7 10.5 0.4 31 7.9 NW 28 41 15 22 1008.5 1008.3 0.0
30/08:41pm 17.7 10.4 -0.1 30 8.0 NW 28 48 15 26 1008.4 1008.2 0.0
30/08:30pm 17.6 10.0 0.3 31 7.8 NW 30 44 16 24 1008.5 1008.3 0.0
30/08:00pm 18.1 10.1 0.3 30 8.1 NW 32 44 17 24 1008.5 1008.3 0.0
30/07:30pm 18.2 10.0 0.4 30 8.1 NW 33 52 18 28 1008.4 1008.2 0.0
30/07:00pm 18.8 9.5 0.9 30 8.3 NW 39 57 21 31 1008.4 1008.2 0.0
30/06:55pm 18.8 9.5 0.9 30 8.3 NW 39 57 21 31 1008.2 1008.0 0.0
30/06:30pm 18.9 9.7 1.4 31 8.2 NW 39 57 21 31 1008.0 1007.7 0.0
30/06:04pm 19.2 10.6 2.6 33 8.0 NW 37 57 20 31 1007.8 1007.5 0.0
30/06:00pm 19.2 10.7 3.0 34 7.8 NW 37 56 20 30 1007.6 1007.4 0.0
30/05:30pm 19.9 10.3 3.6 34 8.0 NW 43 67 23 36 1007.5 1007.3 0.0
30/05:00pm 20.1 11.7 5.4 38 7.5 NW 39 57 21 31 1007.8 1007.5 0.0
30/04:30pm 20.7 12.4 4.3 34 8.2 NW 37 63 20 34 1007.8 1007.5 0.0
30/04:00pm 21.2 13.6 5.9 37 7.9 NW 35 56 19 30 1007.8 1007.5 0.0
30/03:31pm 21.2 13.7 6.3 38 7.8 NW 35 56 19 30 1008.2 1008.0 0.0
30/03:30pm 21.3 13.4 6.4 38 7.8 NW 37 56 20 30 1008.3 1008.1 0.0
30/03:00pm 21.3 13.4 6.0 37 8.0 NW 37 57 20 31 1008.9 1008.7 0.0
30/02:30pm 21.5 12.4 4.1 32 8.7 NW 41 69 22 37 1009.4 1009.1 0.0
30/02:00pm 21.6 13.8 4.7 33 8.6 NW 35 56 19 30 1009.6 1009.4 0.0
30/01:30pm 21.6 12.2 4.2 32 8.7 NW 43 67 23 36 1010.1 1009.9 0.0
30/01:00pm 22.0 13.8 5.0 33 8.7 NW 37 65 20 35 1010.2 1010.0 0.0
30/12:30pm 21.9 12.4 4.9 33 8.7 WNW 44 63 24 34 1010.2 1010.0 0.0
30/12:00pm 21.5 11.6 4.6 33 8.6 NW 46 74 25 40 1010.4 1010.2 0.0
30/11:30am 21.6 14.3 5.5 35 8.3 NW 33 67 18 36 1011.0 1010.8 0.0
30/11:24am 21.6 14.8 5.1 34 8.4 NW 30 67 16 36 1011.0 1010.8 0.0
30/11:11am 21.3 14.9 5.2 35 8.2 NW 28 46 15 25 1011.2 1011.0 0.0
30/11:00am 21.4 15.7 6.5 38 7.8 NW 26 44 14 24 1011.5 1011.3 0.0
30/10:30am 21.1 17.5 6.6 39 7.6 NNW 15 30 8 16 1012.0 1011.9 0.0
30/10:00am 20.3 16.1 5.9 39 7.4 NNW 17 30 9 16 1012.4 1012.3 0.0
30/09:30am 19.8 16.8 7.9 46 6.3 NNW 13 26 7 14 1012.8 1012.6 0.0
30/09:00am 18.9 16.0 8.3 50 5.7 NNW 13 24 7 13 1013.0 1012.8 0.0
30/08:30am 17.4 14.0 7.5 52 5.2 NNW 15 26 8 14 1012.9 1012.7 0.0
30/08:00am 15.8 13.2 7.6 58 4.2 NNW 11 20 6 11 1013.1 1012.9 0.0
30/07:30am 14.6 12.0 7.6 63 3.6 NNW 11 19 6 10 1013.2 1013.0 0.0
30/07:00am 13.1 10.8 7.5 69 2.8 NNW 9 19 5 10 1013.4 1013.3 0.0
30/06:30am 11.7 9.3 7.0 73 2.3 NNW 9 17 5 9 1013.5 1013.4 0.0
30/06:00am 10.0 7.6 6.9 81 1.5 N 9 17 5 9 1013.4 1013.3 0.0
30/05:30am 9.2 7.2 7.3 88 0.9 N 7 13 4 7 1013.2 1013.0 0.0
30/05:00am 7.7 5.7 7.1 96 0.3 N 7 13 4 7 1013.2 1013.0 0.0
30/04:30am 6.6 5.7 6.0 96 0.3 CALM 0 4 0 2 1013.3 1013.2 0.0
30/04:00am 5.5 4.3 4.8 95 0.3 CALM 0 0 0 0 1013.3 1013.2 0.0
30/03:30am 5.1 3.9 4.4 95 0.3 CALM 0 0 0 0 1013.4 1013.3 0.0
30/03:00am 6.0 4.9 5.3 95 0.3 CALM 0 0 0 0 1013.8 1013.7 0.0
30/02:30am 5.1 3.9 4.4 95 0.3 CALM 0 0 0 0 1014.0 1013.9 0.0
30/02:00am 6.0 4.9 5.3 95 0.3 CALM 0 0 0 0 1014.4 1014.2 0.0
30/01:30am 6.6 5.7 6.0 96 0.3 CALM 0 0 0 0 1014.6 1014.5 0.0
30/01:00am 5.8 4.7 5.1 95 0.3 CALM 0 0 0 0 1014.9 1014.8 0.0
30/12:30am 6.2 5.2 5.5 95 0.3 CALM 0 0 0 0 1015.1 1015.0 0.0
30/12:00am 5.9 4.8 5.0 94 0.4 CALM 0 0 0 0 1015.5 1015.4 0.0
 
Date/Time
EST
Temp
°C
App
Temp
°C
Dew
Point
Rel
Hum
%
Delta-T
°C
Wind Press
QNH
hPa
Press
MSL
hPa
Rain
since 9 am
mm
Dir
 
Spd
km/h
Gust
km/h
Spd
kts
Gust
kts
29/11:30pm 5.6 4.4 4.6 93 0.4 CALM 0 0 0 0 1015.8 1015.6 0.0
29/11:00pm 6.7 5.7 5.7 93 0.5 CALM 0 0 0 0 1016.0 1015.9 0.0
29/10:30pm 6.6 5.6 5.4 92 0.6 CALM 0 0 0 0 1016.3 1016.2 0.0
29/10:00pm 7.1 6.2 5.9 92 0.6 CALM 0 0 0 0 1016.4 1016.3 0.0
29/09:30pm 7.7 6.8 6.2 90 0.7 CALM 0 0 0 0 1016.5 1016.4 0.0
29/09:00pm 8.2 6.2 6.3 88 0.9 S 6 6 3 3 1016.6 1016.5 0.0
29/08:30pm 8.9 7.1 7.2 89 0.8 SSE 6 7 3 4 1016.6 1016.5 0.0
29/08:00pm 8.9 7.0 6.9 87 1.0 S 6 7 3 4 1016.4 1016.3 0.0
29/07:30pm 9.6 7.7 7.5 87 1.0 SSE 7 9 4 5 1016.2 1016.1 0.0
29/07:00pm 10.6 8.8 7.8 83 1.4 S 7 11 4 6 1016.0 1015.9 0.0
29/06:30pm 11.9 10.2 8.4 79 1.8 SSE 7 11 4 6 1015.8 1015.6 0.0
29/06:00pm 13.2 11.2 8.7 74 2.3 S 9 11 5 6 1015.3 1015.2 0.0
29/05:30pm 17.2 16.0 9.6 61 4.1 S 6 9 3 5 1014.9 1014.8 0.0
29/05:00pm 20.8 18.1 7.4 42 7.1 NNW 11 20 6 11 1014.4 1014.2 0.0
29/04:30pm 21.7 18.7 7.5 40 7.6 NW 13 24 7 13 1013.9 1013.8 0.0
29/04:00pm 22.3 18.4 6.9 37 8.2 NW 17 30 9 16 1013.8 1013.7 0.0
29/03:30pm 23.1 20.2 8.0 38 8.2 NW 13 26 7 14 1013.5 1013.4 0.0
29/03:00pm 23.3 20.0 8.2 38 8.3 NW 15 28 8 15 1013.3 1013.2 0.0
29/02:30pm 23.0 18.8 8.3 39 8.0 NW 20 32 11 17 1013.1 1012.9 0.0
29/02:00pm 22.9 18.2 7.8 38 8.2 NW 22 35 12 19 1013.1 1012.9 0.0
29/01:30pm 23.8 20.7 9.0 39 8.2 NNW 15 26 8 14 1013.4 1013.3 0.0
29/01:00pm 23.4 20.4 7.5 36 8.6 NNW 13 26 7 14 1013.6 1013.5 0.0
29/12:30pm 23.2 20.3 8.1 38 8.2 NNW 13 22 7 12 1013.5 1013.4 0.0
29/12:00pm 22.5 18.7 5.9 34 8.7 NW 15 24 8 13 1014.0 1013.9 0.0
29/11:30am 22.0 18.1 7.0 38 8.0 NW 17 24 9 13 1013.9 1013.8 0.0
29/11:00am 21.4 17.8 6.9 39 7.7 NW 15 24 8 13 1014.5 1014.3 0.0
29/10:30am 21.3 17.4 5.2 35 8.2 NW 15 20 8 11 1014.6 1014.5 0.0
29/10:00am 20.7 17.1 6.6 40 7.4 WNW 15 22 8 12 1014.7 1014.6 0.0
29/09:30am 19.8 13.5 5.5 39 7.3 WNW 28 37 15 20 1014.4 1014.2 0.0
29/09:00am 19.2 12.9 3.8 36 7.6 WNW 26 35 14 19 1014.3 1014.1 0.0
29/08:30am 18.6 14.1 4.0 38 7.2 W 17 28 9 15 1014.5 1014.3 0.0
29/08:00am 18.0 15.0 3.9 39 6.9 WNW 9 20 5 11 1014.3 1014.1 0.0
29/07:30am 16.1 13.3 5.1 48 5.4 NW 9 20 5 11 1013.9 1013.8 0.0
29/07:00am 14.3 11.4 4.6 52 4.7 NNW 9 19 5 10 1014.0 1013.9 0.0
29/06:30am 12.8 8.4 4.8 58 3.8 NNW 17 30 9 16 1013.3 1013.2 0.0
29/06:00am 12.2 7.4 4.4 59 3.7 NNW 19 28 10 15 1013.1 1012.9 0.0
29/05:30am 10.9 7.3 4.8 66 2.9 NNW 13 20 7 11 1013.3 1013.2 0.0
29/05:00am 9.9 7.5 4.5 69 2.5 NNW 6 11 3 6 1013.1 1012.9 0.0
29/04:30am 11.1 7.4 4.3 63 3.2 NNW 13 28 7 15 1013.1 1012.9 0.0
29/04:00am 12.1 8.4 4.6 60 3.6 NW 13 20 7 11 1013.3 1013.2 0.0
29/03:30am 12.4 8.0 4.6 59 3.7 NW 17 26 9 14 1013.1 1012.9 0.0
29/03:00am 11.8 7.4 4.8 62 3.3 NW 17 26 9 14 1013.2 1013.0 0.0
29/02:30am 12.3 7.6 5.0 61 3.5 NW 19 26 10 14 1013.6 1013.5 0.0
29/02:00am 12.6 8.3 5.1 60 3.6 NNW 17 24 9 13 1014.2 1014.0 0.0
29/01:30am 13.6 9.2 4.7 55 4.3 NW 17 26 9 14 1014.4 1014.2 0.0
29/01:00am 15.3 8.7 4.4 48 5.3 NW 28 43 15 23 1014.4 1014.2 0.0
29/12:36am 15.9 8.9 4.3 46 5.6 NW 30 48 16 26 1014.5 1014.3 0.0
29/12:30am 16.0 9.8 4.4 46 5.6 NW 26 41 14 22 1014.6 1014.5 0.0
29/12:00am 15.2 12.3 4.9 50 5.0 N 9 20 5 11 1014.9 1014.8 0.0
 
Date/Time
EST
Temp
°C
App
Temp
°C
Dew
Point
Rel
Hum
%
Delta-T
°C
Wind Press
QNH
hPa
Press
MSL
hPa
Rain
since 9 am
mm
Dir
 
Spd
km/h
Gust
km/h
Spd
kts
Gust
kts
28/11:30pm 15.8 12.2 5.1 49 5.3 NNW 13 28 7 15 1015.0 1014.9 0.0
28/11:00pm 16.2 11.3 5.2 48 5.4 NW 20 35 11 19 1014.9 1014.8 0.0
28/10:30pm 13.7 11.7 7.0 64 3.4 N 7 24 4 13 1015.3 1015.2 0.0
28/10:00pm 12.4 10.5 6.7 68 2.8 N 6 13 3 7 1015.3 1015.2 0.0
28/09:30pm 12.7 10.5 6.3 65 3.2 NNE 7 15 4 8 1015.8 1015.6 0.0
28/09:00pm 15.2 10.8 6.7 57 4.3 NW 19 33 10 18 1015.4 1015.3 0.0
28/08:30pm 14.9 11.9 7.9 63 3.6 NW 13 26 7 14 1016.0 1015.9 0.0
28/08:00pm 15.2 12.7 8.0 62 3.7 NW 11 19 6 10 1016.3 1016.2 0.0
28/07:30pm 15.4 11.3 7.9 61 3.9 NW 19 33 10 18 1015.6 1015.5 0.0
28/07:00pm 15.9 10.9 8.2 60 4.0 NW 24 35 13 19 1015.3 1015.2 0.0
28/06:30pm 15.3 13.2 8.3 63 3.7 N 9 17 5 9 1015.5 1015.4 0.0
28/06:00pm 15.6 13.8 7.9 60 4.0 N 7 13 4 7 1015.5 1015.4 0.0

Other Formats:

Comma delimited format used in spreadsheet applications
http://www.bom.gov.au/fwo/IDN60801/IDN60801.94927.axf

JavaScript Object Notation format (JSON) in row-major order
http://www.bom.gov.au/fwo/IDN60801/IDN60801.94927.json